<?xml version="1.0" encoding="UTF-8" standalone="no" ?><gpx xmlns="http://www.topografix.com/GPX/1/1" xmlns:gpxx="http://www.garmin.com/xmlschemas/GpxExtensions/v3" xmlns:wptx1="http://www.garmin.com/xmlschemas/WaypointExtension/v1" xmlns:gpxtpx="http://www.garmin.com/xmlschemas/TrackPointExtension/v1" creator="GuideVTT.com" version="1.1" xmlns:xsi="http://www.w3.org/2001/XMLSchema-instance" xsi:schemaLocation="http://www.topografix.com/GPX/1/1 http://www.topografix.com/GPX/1/1/gpx.xsd http://www.garmin.com/xmlschemas/GpxExtensions/v3 http://www8.garmin.com/xmlschemas/GpxExtensionsv3.xsd http://www.garmin.com/xmlschemas/WaypointExtension/v1 http://www8.garmin.com/xmlschemas/WaypointExtensionv1.xsd http://www.garmin.com/xmlschemas/TrackPointExtension/v1 http://www.garmin.com/xmlschemas/TrackPointExtensionv1.xsd">
<metadata><link href="http://www.garmin.com"><text>Garmin International</text></link><time>2013-06-22T15:13:50Z</time></metadata>
<trk><name>rp_2007_11.gpx</name><extensions><gpxx:TrackExtension><gpxx:DisplayColor>Cyan</gpxx:DisplayColor></gpxx:TrackExtension></extensions><trkseg>
<trkpt lat="47.41152048" lon="7.07326412"><ele>401.968506</ele><time>2007-07-18T16:22:55Z</time></trkpt>
<trkpt lat="47.41098404" lon="7.07285643"><ele>420.233398</ele><time>2007-07-18T16:23:09Z</time></trkpt>
<trkpt lat="47.41079092" lon="7.07231998"><ele>420.233398</ele><time>2007-07-18T16:23:27Z</time></trkpt>
<trkpt lat="47.40993261" lon="7.07176208"><ele>437.056519</ele><time>2007-07-18T16:23:40Z</time></trkpt>
<trkpt lat="47.40926743" lon="7.07118273"><ele>452.918213</ele><time>2007-07-18T16:24:02Z</time></trkpt>
<trkpt lat="47.40905285" lon="7.07081795"><ele>460.608765</ele><time>2007-07-18T16:24:12Z</time></trkpt>
<trkpt lat="47.40896702" lon="7.07075357"><ele>463.012085</ele><time>2007-07-18T16:24:14Z</time></trkpt>
<trkpt lat="47.40855932" lon="7.07032442"><ele>471.66394</ele><time>2007-07-18T16:24:28Z</time></trkpt>
<trkpt lat="47.40720749" lon="7.06877947"><ele>482.238525</ele><time>2007-07-18T16:25:17Z</time></trkpt>
<trkpt lat="47.40675688" lon="7.06815720"><ele>487.045044</ele><time>2007-07-18T16:25:37Z</time></trkpt>
<trkpt lat="47.40632772" lon="7.06772804"><ele>490.890381</ele><time>2007-07-18T16:25:55Z</time></trkpt>
<trkpt lat="47.40570545" lon="7.06729889"><ele>492.812988</ele><time>2007-07-18T16:26:17Z</time></trkpt>
<trkpt lat="47.40471840" lon="7.06734180"><ele>494.255005</ele><time>2007-07-18T16:26:37Z</time></trkpt>
<trkpt lat="47.40287304" lon="7.06680536"><ele>494.735596</ele><time>2007-07-18T16:27:08Z</time></trkpt>
<trkpt lat="47.40276575" lon="7.06674099"><ele>494.735596</ele><time>2007-07-18T16:27:10Z</time></trkpt>
<trkpt lat="47.40248680" lon="7.06646204"><ele>495.696899</ele><time>2007-07-18T16:27:17Z</time></trkpt>
<trkpt lat="47.40205765" lon="7.06641912"><ele>495.696899</ele><time>2007-07-18T16:27:28Z</time></trkpt>
<trkpt lat="47.40141392" lon="7.06551790"><ele>498.100342</ele><time>2007-07-18T16:27:50Z</time></trkpt>
<trkpt lat="47.40087748" lon="7.06489563"><ele>503.868164</ele><time>2007-07-18T16:28:07Z</time></trkpt>
<trkpt lat="47.40040541" lon="7.06459522"><ele>501.945557</ele><time>2007-07-18T16:28:20Z</time></trkpt>
<trkpt lat="47.39956856" lon="7.06388712"><ele>501.464844</ele><time>2007-07-18T16:28:41Z</time></trkpt>
<trkpt lat="47.39928961" lon="7.06399441"><ele>500.984131</ele><time>2007-07-18T16:28:47Z</time></trkpt>
<trkpt lat="47.39901066" lon="7.06558228"><ele>500.50354</ele><time>2007-07-18T16:29:11Z</time></trkpt>
<trkpt lat="47.39903212" lon="7.06571102"><ele>500.022949</ele><time>2007-07-18T16:29:13Z</time></trkpt>
<trkpt lat="47.39886045" lon="7.06590414"><ele>500.022949</ele><time>2007-07-18T16:29:18Z</time></trkpt>
<trkpt lat="47.39810944" lon="7.06590414"><ele>497.138916</ele><time>2007-07-18T16:29:29Z</time></trkpt>
<trkpt lat="47.39795923" lon="7.06620455"><ele>498.100342</ele><time>2007-07-18T16:29:34Z</time></trkpt>
<trkpt lat="47.39828110" lon="7.06671953"><ele>496.658325</ele><time>2007-07-18T16:29:41Z</time></trkpt>
<trkpt lat="47.39849567" lon="7.06764221"><ele>492.812988</ele><time>2007-07-18T16:29:49Z</time></trkpt>
<trkpt lat="47.39918232" lon="7.07086086"><ele>479.354492</ele><time>2007-07-18T16:30:14Z</time></trkpt>
<trkpt lat="47.39903212" lon="7.07109690"><ele>479.354492</ele><time>2007-07-18T16:30:19Z</time></trkpt>
<trkpt lat="47.39832401" lon="7.07105398"><ele>481.277222</ele><time>2007-07-18T16:30:33Z</time></trkpt>
<trkpt lat="47.39697218" lon="7.07109690"><ele>490.40979</ele><time>2007-07-18T16:31:09Z</time></trkpt>
<trkpt lat="47.39634991" lon="7.07105398"><ele>492.332397</ele><time>2007-07-18T16:31:25Z</time></trkpt>
<trkpt lat="47.39499807" lon="7.07066774"><ele>493.774292</ele><time>2007-07-18T16:31:54Z</time></trkpt>
<trkpt lat="47.39396811" lon="7.07043171"><ele>492.332397</ele><time>2007-07-18T16:32:12Z</time></trkpt>
<trkpt lat="47.39353895" lon="7.07028151"><ele>488.487183</ele><time>2007-07-18T16:32:19Z</time></trkpt>
<trkpt lat="47.39349604" lon="7.07066774"><ele>487.045044</ele><time>2007-07-18T16:32:23Z</time></trkpt>
<trkpt lat="47.39336729" lon="7.07088232"><ele>485.122437</ele><time>2007-07-18T16:32:27Z</time></trkpt>
<trkpt lat="47.39323854" lon="7.07073212"><ele>486.564453</ele><time>2007-07-18T16:32:31Z</time></trkpt>
<trkpt lat="47.39207983" lon="7.07013130"><ele>494.255005</ele><time>2007-07-18T16:33:04Z</time></trkpt>
<trkpt lat="47.39165068" lon="7.06976652"><ele>496.177734</ele><time>2007-07-18T16:33:17Z</time></trkpt>
<trkpt lat="47.39132881" lon="7.06918716"><ele>498.100342</ele><time>2007-07-18T16:33:31Z</time></trkpt>
<trkpt lat="47.39074945" lon="7.06802845"><ele>503.868164</ele><time>2007-07-18T16:34:01Z</time></trkpt>
<trkpt lat="47.39055634" lon="7.06734180"><ele>506.271484</ele><time>2007-07-18T16:34:15Z</time></trkpt>
<trkpt lat="47.39044905" lon="7.06659079"><ele>509.155396</ele><time>2007-07-18T16:34:29Z</time></trkpt>
<trkpt lat="47.39025593" lon="7.06588268"><ele>511.558716</ele><time>2007-07-18T16:34:43Z</time></trkpt>
<trkpt lat="47.38984823" lon="7.06478834"><ele>515.884644</ele><time>2007-07-18T16:35:08Z</time></trkpt>
<trkpt lat="47.38746643" lon="7.06094742"><ele>541.359497</ele><time>2007-07-18T16:37:28Z</time></trkpt>
<trkpt lat="47.38699436" lon="7.06032515"><ele>547.608154</ele><time>2007-07-18T16:37:56Z</time></trkpt>
<trkpt lat="47.38656521" lon="7.05940247"><ele>556.740723</ele><time>2007-07-18T16:38:29Z</time></trkpt>
<trkpt lat="47.38650084" lon="7.05933809"><ele>557.221436</ele><time>2007-07-18T16:38:33Z</time></trkpt>
<trkpt lat="47.38583565" lon="7.05916643"><ele>559.144043</ele><time>2007-07-18T16:39:08Z</time></trkpt>
<trkpt lat="47.38559961" lon="7.05903769"><ele>560.585938</ele><time>2007-07-18T16:39:25Z</time></trkpt>
<trkpt lat="47.38525629" lon="7.05901623"><ele>561.06665</ele><time>2007-07-18T16:39:48Z</time></trkpt>
<trkpt lat="47.38452673" lon="7.05938101"><ele>572.121826</ele><time>2007-07-18T16:40:40Z</time></trkpt>
<trkpt lat="47.38441944" lon="7.05908060"><ele>573.563965</ele><time>2007-07-18T16:40:58Z</time></trkpt>
<trkpt lat="47.38456964" lon="7.05794334"><ele>586.060791</ele><time>2007-07-18T16:41:43Z</time></trkpt>
<trkpt lat="47.38465548" lon="7.05757856"><ele>586.541504</ele><time>2007-07-18T16:41:55Z</time></trkpt>
<trkpt lat="47.38465548" lon="7.05740690"><ele>589.425537</ele><time>2007-07-18T16:42:00Z</time></trkpt>
<trkpt lat="47.38450527" lon="7.05704212"><ele>595.674072</ele><time>2007-07-18T16:42:18Z</time></trkpt>
<trkpt lat="47.38444090" lon="7.05697775"><ele>598.077393</ele><time>2007-07-18T16:42:24Z</time></trkpt>
<trkpt lat="47.38422632" lon="7.05704212"><ele>600</ele><time>2007-07-18T16:42:40Z</time></trkpt>
<trkpt lat="47.38407612" lon="7.05736399"><ele>598.077393</ele><time>2007-07-18T16:42:59Z</time></trkpt>
<trkpt lat="47.38384008" lon="7.05766439"><ele>601.922607</ele><time>2007-07-18T16:43:23Z</time></trkpt>
<trkpt lat="47.38364697" lon="7.05762148"><ele>603.845215</ele><time>2007-07-18T16:43:38Z</time></trkpt>
<trkpt lat="47.38360405" lon="7.05693483"><ele>610.09375</ele><time>2007-07-18T16:43:57Z</time></trkpt>
<trkpt lat="47.38360405" lon="7.05639839"><ele>615.381104</ele><time>2007-07-18T16:44:13Z</time></trkpt>
<trkpt lat="47.38349676" lon="7.05590487"><ele>618.745605</ele><time>2007-07-18T16:44:32Z</time></trkpt>
<trkpt lat="47.38347530" lon="7.05584049"><ele>618.264893</ele><time>2007-07-18T16:44:35Z</time></trkpt>
<trkpt lat="47.38319635" lon="7.05569029"><ele>625.955566</ele><time>2007-07-18T16:44:57Z</time></trkpt>
<trkpt lat="47.38287449" lon="7.05586195"><ele>629.320068</ele><time>2007-07-18T16:45:19Z</time></trkpt>
<trkpt lat="47.38253117" lon="7.05626965"><ele>633.165283</ele><time>2007-07-18T16:45:40Z</time></trkpt>
<trkpt lat="47.38216639" lon="7.05641985"><ele>639.414063</ele><time>2007-07-18T16:45:56Z</time></trkpt>
<trkpt lat="47.38152266" lon="7.05650568"><ele>648.065918</ele><time>2007-07-18T16:46:36Z</time></trkpt>
<trkpt lat="47.38115788" lon="7.05641985"><ele>649.507813</ele><time>2007-07-18T16:46:56Z</time></trkpt>
<trkpt lat="47.38072872" lon="7.05616236"><ele>656.237061</ele><time>2007-07-18T16:47:18Z</time></trkpt>
<trkpt lat="47.38017082" lon="7.05594778"><ele>656.717773</ele><time>2007-07-18T16:47:38Z</time></trkpt>
<trkpt lat="47.37965584" lon="7.05551863"><ele>658.640381</ele><time>2007-07-18T16:47:53Z</time></trkpt>
<trkpt lat="47.37941980" lon="7.05506802"><ele>659.601807</ele><time>2007-07-18T16:48:02Z</time></trkpt>
<trkpt lat="47.37841129" lon="7.05508947"><ele>659.601807</ele><time>2007-07-18T16:48:19Z</time></trkpt>
<trkpt lat="47.37826109" lon="7.05517530"><ele>659.601807</ele><time>2007-07-18T16:48:23Z</time></trkpt>
<trkpt lat="47.37776756" lon="7.05639839"><ele>658.159912</ele><time>2007-07-18T16:48:41Z</time></trkpt>
<trkpt lat="47.37761736" lon="7.05732107"><ele>661.043701</ele><time>2007-07-18T16:48:54Z</time></trkpt>
<trkpt lat="47.37759590" lon="7.05770731"><ele>661.043701</ele><time>2007-07-18T16:49:06Z</time></trkpt>
<trkpt lat="47.37763882" lon="7.05813646"><ele>663.92749</ele><time>2007-07-18T16:49:24Z</time></trkpt>
<trkpt lat="47.37766027" lon="7.05920935"><ele>667.292236</ele><time>2007-07-18T16:50:03Z</time></trkpt>
<trkpt lat="47.37763882" lon="7.05972433"><ele>669.215088</ele><time>2007-07-18T16:50:19Z</time></trkpt>
<trkpt lat="47.37768173" lon="7.06019640"><ele>673.060303</ele><time>2007-07-18T16:50:34Z</time></trkpt>
<trkpt lat="47.37768173" lon="7.06064701"><ele>675.944092</ele><time>2007-07-18T16:50:49Z</time></trkpt>
<trkpt lat="47.37761736" lon="7.06180573"><ele>682.67334</ele><time>2007-07-18T16:51:34Z</time></trkpt>
<trkpt lat="47.37753153" lon="7.06247091"><ele>686.999268</ele><time>2007-07-18T16:52:01Z</time></trkpt>
<trkpt lat="47.37751007" lon="7.06339359"><ele>690.844482</ele><time>2007-07-18T16:52:37Z</time></trkpt>
<trkpt lat="47.37768173" lon="7.06412315"><ele>695.17041</ele><time>2007-07-18T16:53:09Z</time></trkpt>
<trkpt lat="47.37763882" lon="7.06455231"><ele>696.131836</ele><time>2007-07-18T16:53:28Z</time></trkpt>
<trkpt lat="47.37757444" lon="7.06478834"><ele>696.131836</ele><time>2007-07-18T16:53:38Z</time></trkpt>
<trkpt lat="47.37731695" lon="7.06472397"><ele>702.861084</ele><time>2007-07-18T16:53:55Z</time></trkpt>
<trkpt lat="47.37667322" lon="7.06442356"><ele>715.838867</ele><time>2007-07-18T16:54:41Z</time></trkpt>
<trkpt lat="47.37635136" lon="7.06431627"><ele>722.087402</ele><time>2007-07-18T16:55:06Z</time></trkpt>
<trkpt lat="47.37615824" lon="7.06427336"><ele>724.971436</ele><time>2007-07-18T16:55:19Z</time></trkpt>
<trkpt lat="47.37617970" lon="7.06435919"><ele>724.490723</ele><time>2007-07-18T16:55:27Z</time></trkpt>
<trkpt lat="47.37615824" lon="7.06427336"><ele>724.01001</ele><time>2007-07-18T16:55:32Z</time></trkpt>
<trkpt lat="47.37611532" lon="7.06425190"><ele>724.01001</ele><time>2007-07-18T16:55:35Z</time></trkpt>
<trkpt lat="47.37592220" lon="7.06397295"><ele>726.41333</ele><time>2007-07-18T16:55:54Z</time></trkpt>
<trkpt lat="47.37575054" lon="7.06347942"><ele>730.258545</ele><time>2007-07-18T16:56:18Z</time></trkpt>
<trkpt lat="47.37564325" lon="7.06264257"><ele>733.142578</ele><time>2007-07-18T16:56:57Z</time></trkpt>
<trkpt lat="47.37542868" lon="7.06144094"><ele>736.026611</ele><time>2007-07-18T16:58:03Z</time></trkpt>
<trkpt lat="47.37538576" lon="7.06099033"><ele>740.833008</ele><time>2007-07-18T16:58:25Z</time></trkpt>
<trkpt lat="47.37484932" lon="7.05974579"><ele>755.25293</ele><time>2007-07-18T16:59:19Z</time></trkpt>
<trkpt lat="47.37482786" lon="7.05916643"><ele>758.617432</ele><time>2007-07-18T16:59:43Z</time></trkpt>
<trkpt lat="47.37469912" lon="7.05826521"><ele>767.269531</ele><time>2007-07-18T17:00:26Z</time></trkpt>
<trkpt lat="47.37442017" lon="7.05742836"><ele>776.401855</ele><time>2007-07-18T17:01:06Z</time></trkpt>
<trkpt lat="47.37401247" lon="7.05596924"><ele>789.379639</ele><time>2007-07-18T17:02:09Z</time></trkpt>
<trkpt lat="47.37315416" lon="7.05343723"><ele>801.39624</ele><time>2007-07-18T17:04:02Z</time></trkpt>
<trkpt lat="47.37341166" lon="7.05324411"><ele>802.357422</ele><time>2007-07-18T17:04:14Z</time></trkpt>
<trkpt lat="47.37392664" lon="7.05236435"><ele>803.799561</ele><time>2007-07-18T17:04:46Z</time></trkpt>
<trkpt lat="47.37409830" lon="7.05148458"><ele>803.318848</ele><time>2007-07-18T17:05:09Z</time></trkpt>
<trkpt lat="47.37422705" lon="7.05041170"><ele>802.357422</ele><time>2007-07-18T17:05:29Z</time></trkpt>
<trkpt lat="47.37437725" lon="7.04955339"><ele>803.799561</ele><time>2007-07-18T17:05:43Z</time></trkpt>
<trkpt lat="47.37446308" lon="7.04854488"><ele>802.357422</ele><time>2007-07-18T17:06:01Z</time></trkpt>
<trkpt lat="47.37446308" lon="7.04736471"><ele>801.876953</ele><time>2007-07-18T17:06:29Z</time></trkpt>
<trkpt lat="47.37407684" lon="7.04509020"><ele>816.296631</ele><time>2007-07-18T17:07:38Z</time></trkpt>
<trkpt lat="47.37405539" lon="7.04448938"><ele>818.699951</ele><time>2007-07-18T17:07:56Z</time></trkpt>
<trkpt lat="47.37422705" lon="7.04399586"><ele>817.738525</ele><time>2007-07-18T17:08:13Z</time></trkpt>
<trkpt lat="47.37433434" lon="7.04335213"><ele>819.661377</ele><time>2007-07-18T17:08:34Z</time></trkpt>
<trkpt lat="47.37435579" lon="7.04270840"><ele>823.025879</ele><time>2007-07-18T17:08:55Z</time></trkpt>
<trkpt lat="47.37422705" lon="7.04178572"><ele>830.23584</ele><time>2007-07-18T17:09:22Z</time></trkpt>
<trkpt lat="47.37414122" lon="7.04030514"><ele>836.484375</ele><time>2007-07-18T17:10:01Z</time></trkpt>
<trkpt lat="47.37416267" lon="7.03959703"><ele>838.887695</ele><time>2007-07-18T17:10:20Z</time></trkpt>
<trkpt lat="47.37411976" lon="7.03891039"><ele>837.92627</ele><time>2007-07-18T17:10:39Z</time></trkpt>
<trkpt lat="47.37418413" lon="7.03796625"><ele>837.92627</ele><time>2007-07-18T17:11:06Z</time></trkpt>
<trkpt lat="47.37414122" lon="7.03717232"><ele>841.290771</ele><time>2007-07-18T17:11:28Z</time></trkpt>
<trkpt lat="47.37399101" lon="7.03708649"><ele>841.290771</ele><time>2007-07-18T17:11:40Z</time></trkpt>
<trkpt lat="47.37394810" lon="7.03712940"><ele>841.290771</ele><time>2007-07-18T17:11:44Z</time></trkpt>
<trkpt lat="47.37392664" lon="7.03723669"><ele>841.290771</ele><time>2007-07-18T17:11:48Z</time></trkpt>
<trkpt lat="47.37388372" lon="7.03788042"><ele>842.73291</ele><time>2007-07-18T17:12:14Z</time></trkpt>
<trkpt lat="47.37390518" lon="7.03828812"><ele>843.213379</ele><time>2007-07-18T17:12:30Z</time></trkpt>
<trkpt lat="47.37384081" lon="7.03886747"><ele>845.13623</ele><time>2007-07-18T17:12:55Z</time></trkpt>
<trkpt lat="47.37369061" lon="7.03974724"><ele>847.058838</ele><time>2007-07-18T17:13:32Z</time></trkpt>
<trkpt lat="47.37351894" lon="7.04043388"><ele>850.904053</ele><time>2007-07-18T17:13:55Z</time></trkpt>
<trkpt lat="47.37321854" lon="7.04092741"><ele>856.671875</ele><time>2007-07-18T17:14:12Z</time></trkpt>
<trkpt lat="47.37276793" lon="7.04150677"><ele>857.633301</ele><time>2007-07-18T17:14:32Z</time></trkpt>
<trkpt lat="47.37231731" lon="7.04266548"><ele>858.114014</ele><time>2007-07-18T17:14:59Z</time></trkpt>
<trkpt lat="47.37229586" lon="7.04526186"><ele>858.114014</ele><time>2007-07-18T17:15:17Z</time></trkpt>
<trkpt lat="47.37169504" lon="7.05026150"><ele>858.594482</ele><time>2007-07-18T17:16:18Z</time></trkpt>
<trkpt lat="47.37120152" lon="7.05176353"><ele>858.594482</ele><time>2007-07-18T17:16:39Z</time></trkpt>
<trkpt lat="47.37075090" lon="7.05223560"><ele>859.075195</ele><time>2007-07-18T17:16:53Z</time></trkpt>
<trkpt lat="47.37012863" lon="7.05150604"><ele>859.075195</ele><time>2007-07-18T17:16:57Z</time></trkpt>
<trkpt lat="47.37017155" lon="7.05154896"><ele>858.594482</ele><time>2007-07-18T17:16:59Z</time></trkpt>
<trkpt lat="47.37015009" lon="7.05137730"><ele>863.881836</ele><time>2007-07-18T17:17:47Z</time></trkpt>
<trkpt lat="47.37021446" lon="7.05174208"><ele>863.881836</ele><time>2007-07-18T17:17:57Z</time></trkpt>
<trkpt lat="47.37077236" lon="7.05300808"><ele>865.323975</ele><time>2007-07-18T17:18:25Z</time></trkpt>
<trkpt lat="47.37169504" lon="7.05543280"><ele>859.075195</ele><time>2007-07-18T17:18:51Z</time></trkpt>
<trkpt lat="47.37259626" lon="7.05744982"><ele>858.114014</ele><time>2007-07-18T17:19:10Z</time></trkpt>
<trkpt lat="47.37354040" lon="7.05987453"><ele>853.307373</ele><time>2007-07-18T17:19:30Z</time></trkpt>
<trkpt lat="47.37420559" lon="7.06191301"><ele>850.423584</ele><time>2007-07-18T17:19:45Z</time></trkpt>
<trkpt lat="47.37523556" lon="7.06646204"><ele>849.942871</ele><time>2007-07-18T17:20:19Z</time></trkpt>
<trkpt lat="47.37624407" lon="7.07066774"><ele>846.578369</ele><time>2007-07-18T17:20:50Z</time></trkpt>
<trkpt lat="47.37720966" lon="7.07231998"><ele>833.119629</ele><time>2007-07-18T17:21:05Z</time></trkpt>
<trkpt lat="47.37742424" lon="7.07238436"><ele>831.677734</ele><time>2007-07-18T17:21:08Z</time></trkpt>
<trkpt lat="47.37759590" lon="7.07169771"><ele>828.793945</ele><time>2007-07-18T17:21:14Z</time></trkpt>
<trkpt lat="47.37800360" lon="7.07066774"><ele>828.793945</ele><time>2007-07-18T17:21:22Z</time></trkpt>
<trkpt lat="47.37864733" lon="7.06925154"><ele>825.428955</ele><time>2007-07-18T17:21:31Z</time></trkpt>
<trkpt lat="47.37890482" lon="7.06841469"><ele>819.661377</ele><time>2007-07-18T17:21:36Z</time></trkpt>
<trkpt lat="47.37920523" lon="7.06607580"><ele>786.976318</ele><time>2007-07-18T17:21:48Z</time></trkpt>
<trkpt lat="47.37946272" lon="7.06463814"><ele>777.84375</ele><time>2007-07-18T17:21:56Z</time></trkpt>
<trkpt lat="47.37963438" lon="7.06450939"><ele>775.921143</ele><time>2007-07-18T17:21:59Z</time></trkpt>
<trkpt lat="47.37976313" lon="7.06489563"><ele>772.556641</ele><time>2007-07-18T17:22:03Z</time></trkpt>
<trkpt lat="47.37978458" lon="7.06562519"><ele>766.308105</ele><time>2007-07-18T17:22:08Z</time></trkpt>
<trkpt lat="47.38059998" lon="7.06762075"><ele>758.617432</ele><time>2007-07-18T17:22:22Z</time></trkpt>
<trkpt lat="47.38152266" lon="7.07028151"><ele>755.733643</ele><time>2007-07-18T17:22:40Z</time></trkpt>
<trkpt lat="47.38242388" lon="7.07373619"><ele>755.733643</ele><time>2007-07-18T17:23:02Z</time></trkpt>
<trkpt lat="47.38124371" lon="7.07495928"><ele>755.733643</ele><time>2007-07-18T17:23:15Z</time></trkpt>
<trkpt lat="47.38128662" lon="7.07536697"><ele>755.25293</ele><time>2007-07-18T17:23:18Z</time></trkpt>
<trkpt lat="47.38315344" lon="7.07845688"><ele>750.927002</ele><time>2007-07-18T17:23:33Z</time></trkpt>
<trkpt lat="47.38231659" lon="7.08034515"><ele>746.601074</ele><time>2007-07-18T17:23:43Z</time></trkpt>
<trkpt lat="47.38171577" lon="7.08210468"><ele>746.120361</ele><time>2007-07-18T17:23:52Z</time></trkpt>
<trkpt lat="47.38094330" lon="7.08287716"><ele>746.120361</ele><time>2007-07-18T17:23:56Z</time></trkpt>
<trkpt lat="47.38186598" lon="7.08379984"><ele>605.768066</ele><time>2007-07-18T17:24:02Z</time></trkpt>
<trkpt lat="47.38233805" lon="7.08508730"><ele>610.09375</ele><time>2007-07-18T17:24:10Z</time></trkpt>
<trkpt lat="47.38261700" lon="7.08564520"><ele>611.055176</ele><time>2007-07-18T17:24:14Z</time></trkpt>
<trkpt lat="47.38293886" lon="7.08585978"><ele>609.613281</ele><time>2007-07-18T17:24:17Z</time></trkpt>
<trkpt lat="47.38343239" lon="7.08564520"><ele>605.768066</ele><time>2007-07-18T17:24:22Z</time></trkpt>
<trkpt lat="47.38356113" lon="7.08536625"><ele>605.287354</ele><time>2007-07-18T17:24:24Z</time></trkpt>
<trkpt lat="47.38416195" lon="7.08349943"><ele>597.115967</ele><time>2007-07-18T17:24:37Z</time></trkpt>
<trkpt lat="47.38463402" lon="7.08246946"><ele>589.90625</ele><time>2007-07-18T17:24:45Z</time></trkpt>
<trkpt lat="47.38519192" lon="7.08146095"><ele>583.176758</ele><time>2007-07-18T17:24:53Z</time></trkpt>
<trkpt lat="47.38551378" lon="7.08103180"><ele>580.773682</ele><time>2007-07-18T17:24:57Z</time></trkpt>
<trkpt lat="47.38605022" lon="7.08053827"><ele>574.525146</ele><time>2007-07-18T17:25:04Z</time></trkpt>
<trkpt lat="47.38652229" lon="7.08002329"><ele>571.1604</ele><time>2007-07-18T17:25:10Z</time></trkpt>
<trkpt lat="47.38690853" lon="7.07987309"><ele>569.718506</ele><time>2007-07-18T17:25:14Z</time></trkpt>
<trkpt lat="47.38748789" lon="7.08010912"><ele>566.834473</ele><time>2007-07-18T17:25:20Z</time></trkpt>
<trkpt lat="47.38780975" lon="7.08002329"><ele>565.392578</ele><time>2007-07-18T17:25:24Z</time></trkpt>
<trkpt lat="47.38806725" lon="7.07974434"><ele>563.950439</ele><time>2007-07-18T17:25:28Z</time></trkpt>
<trkpt lat="47.38815308" lon="7.07955122"><ele>563.469971</ele><time>2007-07-18T17:25:30Z</time></trkpt>
<trkpt lat="47.38823891" lon="7.07849979"><ele>558.66333</ele><time>2007-07-18T17:25:39Z</time></trkpt>
<trkpt lat="47.38838911" lon="7.07755566"><ele>555.779297</ele><time>2007-07-18T17:25:50Z</time></trkpt>
<trkpt lat="47.38836765" lon="7.07691193"><ele>552.895264</ele><time>2007-07-18T17:25:56Z</time></trkpt>
<trkpt lat="47.38845348" lon="7.07652569"><ele>550.011475</ele><time>2007-07-18T17:26:00Z</time></trkpt>
<trkpt lat="47.38873243" lon="7.07620382"><ele>548.569336</ele><time>2007-07-18T17:26:05Z</time></trkpt>
<trkpt lat="47.38883972" lon="7.07579613"><ele>544.243652</ele><time>2007-07-18T17:26:10Z</time></trkpt>
<trkpt lat="47.38879681" lon="7.07549572"><ele>541.359497</ele><time>2007-07-18T17:26:13Z</time></trkpt>
<trkpt lat="47.38886118" lon="7.07506657"><ele>538.475708</ele><time>2007-07-18T17:26:17Z</time></trkpt>
<trkpt lat="47.38948345" lon="7.07354307"><ele>526.939819</ele><time>2007-07-18T17:26:30Z</time></trkpt>
<trkpt lat="47.38974094" lon="7.07324266"><ele>522.133179</ele><time>2007-07-18T17:26:34Z</time></trkpt>
<trkpt lat="47.39012718" lon="7.07313538"><ele>517.32666</ele><time>2007-07-18T17:26:39Z</time></trkpt>
<trkpt lat="47.39081383" lon="7.07328558"><ele>514.442627</ele><time>2007-07-18T17:26:47Z</time></trkpt>
<trkpt lat="47.39113569" lon="7.07315683"><ele>511.558716</ele><time>2007-07-18T17:26:51Z</time></trkpt>
<trkpt lat="47.39218712" lon="7.07225561"><ele>501.945557</ele><time>2007-07-18T17:27:03Z</time></trkpt>
<trkpt lat="47.39240170" lon="7.07197666"><ele>498.580933</ele><time>2007-07-18T17:27:07Z</time></trkpt>
<trkpt lat="47.39280939" lon="7.07193375"><ele>493.293579</ele><time>2007-07-18T17:27:14Z</time></trkpt>
<trkpt lat="47.39360332" lon="7.07214832"><ele>488.487183</ele><time>2007-07-18T17:27:24Z</time></trkpt>
<trkpt lat="47.39368916" lon="7.07193375"><ele>488.487183</ele><time>2007-07-18T17:27:29Z</time></trkpt>
<trkpt lat="47.39356041" lon="7.07131147"><ele>489.448364</ele><time>2007-07-18T17:27:43Z</time></trkpt>
<trkpt lat="47.39347458" lon="7.07071066"><ele>492.332397</ele><time>2007-07-18T17:27:57Z</time></trkpt>
<trkpt lat="47.39349604" lon="7.07030296"><ele>492.812988</ele><time>2007-07-18T17:28:07Z</time></trkpt>
<trkpt lat="47.39368916" lon="7.07019567"><ele>493.774292</ele><time>2007-07-18T17:28:14Z</time></trkpt>
<trkpt lat="47.39394665" lon="7.07036734"><ele>494.735596</ele><time>2007-07-18T17:28:25Z</time></trkpt>
<trkpt lat="47.39482641" lon="7.07062483"><ele>496.177734</ele><time>2007-07-18T17:28:53Z</time></trkpt>
<trkpt lat="47.39549160" lon="7.07077503"><ele>496.658325</ele><time>2007-07-18T17:29:11Z</time></trkpt>
<trkpt lat="47.39602804" lon="7.07094669"><ele>495.696899</ele><time>2007-07-18T17:29:22Z</time></trkpt>
<trkpt lat="47.39688635" lon="7.07107544"><ele>492.332397</ele><time>2007-07-18T17:29:35Z</time></trkpt>
<trkpt lat="47.39918232" lon="7.07105398"><ele>477.912476</ele><time>2007-07-18T17:30:01Z</time></trkpt>
<trkpt lat="47.39943981" lon="7.07135439"><ele>475.989868</ele><time>2007-07-18T17:30:06Z</time></trkpt>
<trkpt lat="47.39976168" lon="7.07249165"><ele>473.58667</ele><time>2007-07-18T17:30:16Z</time></trkpt>
<trkpt lat="47.39997625" lon="7.07384348"><ele>471.18335</ele><time>2007-07-18T17:30:27Z</time></trkpt>
<trkpt lat="47.40040541" lon="7.07517385"><ele>466.857422</ele><time>2007-07-18T17:30:40Z</time></trkpt>
<trkpt lat="47.40055561" lon="7.07534552"><ele>466.857422</ele><time>2007-07-18T17:30:46Z</time></trkpt>
<trkpt lat="47.40049124" lon="7.07493782"><ele>471.18335</ele><time>2007-07-18T17:31:00Z</time></trkpt>
<trkpt lat="47.40051270" lon="7.07459450"><ele>474.067261</ele><time>2007-07-18T17:31:11Z</time></trkpt>
<trkpt lat="47.40066290" lon="7.07418680"><ele>475.028687</ele><time>2007-07-18T17:31:24Z</time></trkpt>
<trkpt lat="47.40100622" lon="7.07354307"><ele>476.951294</ele><time>2007-07-18T17:31:46Z</time></trkpt>
<trkpt lat="47.40107059" lon="7.07294226"><ele>479.354492</ele><time>2007-07-18T17:31:59Z</time></trkpt>
<trkpt lat="47.40113497" lon="7.07079649"><ele>481.757813</ele><time>2007-07-18T17:32:32Z</time></trkpt>
<trkpt lat="47.40141392" lon="7.06918716"><ele>486.08374</ele><time>2007-07-18T17:32:56Z</time></trkpt>
<trkpt lat="47.40124226" lon="7.06732035"><ele>494.255005</ele><time>2007-07-18T17:33:37Z</time></trkpt>
<trkpt lat="47.40207911" lon="7.06656933"><ele>492.812988</ele><time>2007-07-18T17:33:57Z</time></trkpt>
<trkpt lat="47.40218639" lon="7.06650496"><ele>491.370972</ele><time>2007-07-18T17:33:59Z</time></trkpt>
<trkpt lat="47.40347385" lon="7.06701994"><ele>488.487183</ele><time>2007-07-18T17:34:21Z</time></trkpt>
<trkpt lat="47.40461111" lon="7.06734180"><ele>487.525635</ele><time>2007-07-18T17:34:39Z</time></trkpt>
<trkpt lat="47.40553379" lon="7.06732035"><ele>488.967773</ele><time>2007-07-18T17:34:56Z</time></trkpt>
<trkpt lat="47.40645647" lon="7.06768513"><ele>488.00647</ele><time>2007-07-18T17:35:13Z</time></trkpt>
<trkpt lat="47.40731478" lon="7.06839323"><ele>488.00647</ele><time>2007-07-18T17:35:26Z</time></trkpt>
<trkpt lat="47.40858078" lon="7.07047462"><ele>484.161133</ele><time>2007-07-18T17:35:45Z</time></trkpt>
<trkpt lat="47.40881681" lon="7.07075357"><ele>481.277222</ele><time>2007-07-18T17:35:49Z</time></trkpt>
<trkpt lat="47.40898848" lon="7.07086086"><ele>478.873901</ele><time>2007-07-18T17:35:52Z</time></trkpt>
<trkpt lat="47.40933180" lon="7.07137585"><ele>475.989868</ele><time>2007-07-18T17:36:00Z</time></trkpt>
<trkpt lat="47.40995407" lon="7.07199812"><ele>472.144653</ele><time>2007-07-18T17:36:10Z</time></trkpt>
<trkpt lat="47.41049051" lon="7.07317829"><ele>463.492798</ele><time>2007-07-18T17:36:22Z</time></trkpt>
<trkpt lat="47.41098404" lon="7.07360744"><ele>458.686157</ele><time>2007-07-18T17:36:28Z</time></trkpt>
<trkpt lat="47.41188526" lon="7.07390785"><ele>453.879639</ele><time>2007-07-18T17:36:38Z</time></trkpt>
<trkpt lat="47.41248608" lon="7.07416534"><ele>450.995605</ele><time>2007-07-18T17:36:46Z</time></trkpt>
<trkpt lat="47.41328001" lon="7.07405806"><ele>448.592407</ele><time>2007-07-18T17:36:57Z</time></trkpt>
<trkpt lat="47.41411686" lon="7.07388639"><ele>445.708374</ele><time>2007-07-18T17:37:10Z</time></trkpt>
<trkpt lat="47.41435289" lon="7.07410097"><ele>445.227661</ele><time>2007-07-18T17:37:16Z</time></trkpt>
<trkpt lat="47.41439581" lon="7.07416534"><ele>445.708374</ele><time>2007-07-18T17:37:17Z</time></trkpt>
<trkpt lat="47.41486788" lon="7.07551718"><ele>449.072998</ele><time>2007-07-18T17:37:46Z</time></trkpt>
<trkpt lat="47.41521120" lon="7.07596779"><ele>449.072998</ele><time>2007-07-18T17:38:10Z</time></trkpt>
</trkseg></trk></gpx>